Time,TemperatureF,DewpointF,PressureIn,WindDirection,WindDirectionDegrees,WindSpeedMPH,WindSpeedGustMPH,Humidity,HourlyPrecipIn,Conditions,Clouds,dailyrainin,SolarRadiationWatts/m^2,SoftwareType,DateUTC
2013-02-02 00:02:00,-4.0,-12.0,-100.00,North,2,0.0,2.0,68,0.00,,,0.00,0.000000,,2013-02-02 06:02:00,
2013-02-02 00:32:00,-4.0,-12.0,-100.00,North,355,0.0,3.0,69,0.00,,,0.00,0.000000,,2013-02-02 06:32:00,
2013-02-02 00:42:00,-4.0,-12.0,-100.00,North,355,0.0,3.0,69,0.00,,,0.00,0.000000,,2013-02-02 06:42:00,
2013-02-02 00:52:00,-4.0,-12.0,-100.00,North,355,0.0,3.0,69,0.00,,,0.00,0.000000,,2013-02-02 06:52:00,
2013-02-02 01:02:00,-4.0,-12.0,-100.00,North,355,0.0,3.0,69,0.00,,,0.00,0.000000,,2013-02-02 07:02:00,
2013-02-02 01:32:00,-3.0,-10.0,-100.00,North,350,1.0,2.0,70,0.00,,,0.00,0.000000,,2013-02-02 07:32:00,
2013-02-02 01:42:00,-3.0,-10.0,-100.00,North,350,1.0,2.0,70,0.00,,,0.00,0.000000,,2013-02-02 07:42:00,
2013-02-02 01:52:00,-3.0,-10.0,-100.00,North,350,1.0,2.0,70,0.00,,,0.00,0.000000,,2013-02-02 07:52:00,
2013-02-02 02:01:00,-3.0,-10.0,-100.00,North,350,1.0,2.0,70,0.00,,,0.00,0.000000,,2013-02-02 08:01:00,
2013-02-02 02:32:00,-3.0,-10.0,-100.00,North,8,1.0,2.0,71,0.00,,,0.00,1.000000,,2013-02-02 08:32:00,
2013-02-02 02:42:00,-3.0,-10.0,-100.00,North,8,1.0,2.0,71,0.00,,,0.00,1.000000,,2013-02-02 08:42:00,
2013-02-02 02:53:00,-3.0,-10.0,-100.00,North,8,1.0,2.0,71,0.00,,,0.00,1.000000,,2013-02-02 08:53:00,
2013-02-02 03:01:00,-3.0,-10.0,-100.00,North,8,1.0,2.0,71,0.00,,,0.00,1.000000,,2013-02-02 09:01:00,
2013-02-02 03:32:00,-4.0,-11.0,-100.00,North,350,1.0,4.0,71,0.00,,,0.00,0.000000,,2013-02-02 09:32:00,
2013-02-02 03:42:00,-4.0,-11.0,-100.00,North,350,1.0,4.0,71,0.00,,,0.00,0.000000,,2013-02-02 09:42:00,
2013-02-02 03:52:00,-4.0,-11.0,-100.00,North,350,1.0,4.0,71,0.00,,,0.00,0.000000,,2013-02-02 09:52:00,
2013-02-02 04:01:00,-4.0,-11.0,-100.00,North,350,1.0,4.0,71,0.00,,,0.00,0.000000,,2013-02-02 10:01:00,
2013-02-02 04:32:00,-6.0,-12.0,-100.00,NNW,335,1.0,3.0,73,0.00,,,-99.99,0.000000,,2013-02-02 10:32:00,
2013-02-02 04:42:00,-6.0,-12.0,-100.00,NNW,335,1.0,3.0,73,0.00,,,-99.99,0.000000,,2013-02-02 10:42:00,
2013-02-02 04:52:00,-6.0,-12.0,-100.00,NNW,335,1.0,3.0,73,0.00,,,-99.99,0.000000,,2013-02-02 10:52:00,
2013-02-02 05:01:00,-6.0,-12.0,-100.00,NNW,335,1.0,3.0,73,0.00,,,-99.99,0.000000,,2013-02-02 11:01:00,
2013-02-02 05:32:00,-11.0,-17.0,-100.00,North,357,0.0,2.0,75,0.00,,,0.00,0.000000,,2013-02-02 11:32:00,
2013-02-02 05:42:00,-11.0,-17.0,-100.00,North,357,0.0,2.0,75,0.00,,,0.00,0.000000,,2013-02-02 11:42:00,
2013-02-02 05:52:00,-11.0,-17.0,-100.00,North,357,0.0,2.0,75,0.00,,,0.00,0.000000,,2013-02-02 11:52:00,
2013-02-02 06:02:00,-11.0,-17.0,-100.00,North,357,0.0,2.0,75,0.00,,,0.00,0.000000,,2013-02-02 12:02:00,
2013-02-02 06:32:00,-15.0,-21.0,-100.00,North,352,0.0,2.0,72,0.00,,,0.00,0.000000,,2013-02-02 12:32:00,
2013-02-02 06:42:00,-15.0,-21.0,-100.00,North,352,0.0,2.0,72,0.00,,,0.00,0.000000,,2013-02-02 12:42:00,
2013-02-02 06:52:00,-15.0,-21.0,-100.00,North,352,0.0,2.0,72,0.00,,,0.00,0.000000,,2013-02-02 12:52:00,
2013-02-02 07:02:00,-15.0,-21.0,-100.00,North,352,0.0,2.0,72,0.00,,,0.00,0.000000,,2013-02-02 13:02:00,
2013-02-02 07:33:00,-18.0,-25.0,-100.00,WSW,257,0.0,3.0,69,0.00,,,0.00,0.000000,,2013-02-02 13:33:00,
2013-02-02 07:42:00,-18.0,-25.0,-100.00,WSW,257,0.0,3.0,69,0.00,,,0.00,0.000000,,2013-02-02 13:42:00,
2013-02-02 07:52:00,-18.0,-25.0,-100.00,WSW,257,0.0,3.0,69,0.00,,,0.00,0.000000,,2013-02-02 13:52:00,
2013-02-02 08:02:00,-18.0,-25.0,-100.00,WSW,257,0.0,3.0,69,0.00,,,0.00,0.000000,,2013-02-02 14:02:00,
2013-02-02 08:33:00,-19.0,-27.0,-100.00,North,0,0.0,2.0,67,0.00,,,0.00,3.000000,,2013-02-02 14:33:00,
2013-02-02 08:42:00,-19.0,-27.0,-100.00,North,0,0.0,2.0,67,0.00,,,0.00,3.000000,,2013-02-02 14:42:00,
2013-02-02 08:52:00,-19.0,-27.0,-100.00,North,0,0.0,2.0,67,0.00,,,0.00,3.000000,,2013-02-02 14:52:00,
2013-02-02 09:03:00,-19.0,-27.0,-100.00,North,0,0.0,2.0,67,0.00,,,0.00,3.000000,,2013-02-02 15:03:00,
2013-02-02 09:33:00,-13.0,-20.0,-100.00,ENE,74,1.0,4.0,70,0.00,,,0.00,20.000000,,2013-02-02 15:33:00,
2013-02-02 09:42:00,-13.0,-20.0,-100.00,ENE,74,1.0,4.0,70,0.00,,,0.00,20.000000,,2013-02-02 15:42:00,
2013-02-02 09:52:00,-13.0,-20.0,-100.00,ENE,74,1.0,4.0,70,0.00,,,0.00,20.000000,,2013-02-02 15:52:00,
2013-02-02 10:03:00,-13.0,-20.0,-100.00,ENE,74,1.0,4.0,70,0.00,,,0.00,20.000000,,2013-02-02 16:03:00,
2013-02-02 10:32:00,0.0,-11.0,-100.00,SSW,206,1.0,5.0,58,0.00,,,0.00,69.000000,,2013-02-02 16:32:00,
2013-02-02 10:42:00,0.0,-11.0,-100.00,SSW,206,1.0,5.0,58,0.00,,,0.00,69.000000,,2013-02-02 16:42:00,
2013-02-02 10:52:00,0.0,-11.0,-100.00,SSW,206,1.0,5.0,58,0.00,,,0.00,69.000000,,2013-02-02 16:52:00,
2013-02-02 11:02:00,0.0,-11.0,-100.00,SSW,206,1.0,5.0,58,0.00,,,0.00,69.000000,,2013-02-02 17:02:00,
2013-02-02 11:33:00,3.0,-12.0,-100.00,SSE,152,2.0,6.0,48,0.00,,,0.00,109.000000,,2013-02-02 17:33:00,
2013-02-02 11:42:00,3.0,-12.0,-100.00,SSE,152,2.0,6.0,48,0.00,,,0.00,109.000000,,2013-02-02 17:42:00,
2013-02-02 11:52:00,3.0,-12.0,-100.00,SSE,152,2.0,6.0,48,0.00,,,0.00,109.000000,,2013-02-02 17:52:00,
2013-02-02 12:02:00,3.0,-12.0,-100.00,SSE,152,2.0,6.0,48,0.00,,,0.00,109.000000,,2013-02-02 18:02:00,
2013-02-02 12:32:00,7.0,-11.0,-100.00,SSE,156,3.0,7.0,43,0.00,,,0.00,124.000000,,2013-02-02 18:32:00,
2013-02-02 12:42:00,7.0,-11.0,-100.00,SSE,156,3.0,7.0,43,0.00,,,0.00,124.000000,,2013-02-02 18:42:00,
2013-02-02 12:52:00,7.0,-11.0,-100.00,SSE,156,3.0,7.0,43,0.00,,,0.00,124.000000,,2013-02-02 18:52:00,
2013-02-02 13:02:00,7.0,-11.0,-100.00,SSE,156,3.0,7.0,43,0.00,,,0.00,124.000000,,2013-02-02 19:02:00,
2013-02-02 13:32:00,8.0,-9.0,-100.00,SSW,201,4.0,10.0,44,0.00,,,0.00,124.000000,,2013-02-02 19:32:00,
2013-02-02 13:42:00,8.0,-9.0,-100.00,SSW,201,4.0,10.0,44,0.00,,,0.00,124.000000,,2013-02-02 19:42:00,
2013-02-02 13:52:00,8.0,-9.0,-100.00,SSW,201,4.0,10.0,44,0.00,,,0.00,124.000000,,2013-02-02 19:52:00,
2013-02-02 14:01:00,8.0,-9.0,-100.00,SSW,201,4.0,10.0,44,0.00,,,0.00,124.000000,,2013-02-02 20:01:00,
2013-02-02 14:32:00,10.0,-8.0,-100.00,SSW,208,4.0,9.0,42,0.00,,,0.00,130.000000,,2013-02-02 20:32:00,
2013-02-02 14:42:00,10.0,-8.0,-100.00,SSW,208,4.0,9.0,42,0.00,,,0.00,130.000000,,2013-02-02 20:42:00,
2013-02-02 14:52:00,10.0,-8.0,-100.00,SSW,208,4.0,9.0,42,0.00,,,0.00,130.000000,,2013-02-02 20:52:00,
2013-02-02 15:02:00,10.0,-8.0,-100.00,SSW,208,4.0,9.0,42,0.00,,,0.00,130.000000,,2013-02-02 21:02:00,
2013-02-02 15:32:00,10.0,-8.0,-100.00,SW,229,4.0,9.0,44,0.00,,,0.00,116.000000,,2013-02-02 21:32:00,
2013-02-02 15:42:00,10.0,-8.0,-100.00,SW,229,4.0,9.0,44,0.00,,,0.00,116.000000,,2013-02-02 21:42:00,
2013-02-02 15:52:00,10.0,-8.0,-100.00,SW,229,4.0,9.0,44,0.00,,,0.00,116.000000,,2013-02-02 21:52:00,
2013-02-02 16:02:00,10.0,-8.0,-100.00,SW,229,4.0,9.0,44,0.00,,,0.00,116.000000,,2013-02-02 22:02:00,
2013-02-02 16:32:00,9.0,-7.0,-100.00,SW,228,3.0,7.0,47,0.00,,,0.00,46.000000,,2013-02-02 22:32:00,
2013-02-02 16:42:00,9.0,-7.0,-100.00,SW,228,3.0,7.0,47,0.00,,,0.00,46.000000,,2013-02-02 22:42:00,
2013-02-02 16:52:00,9.0,-7.0,-100.00,SW,228,3.0,7.0,47,0.00,,,0.00,46.000000,,2013-02-02 22:52:00,
2013-02-02 17:02:00,9.0,-7.0,-100.00,SW,228,3.0,7.0,47,0.00,,,0.00,46.000000,,2013-02-02 23:02:00,
2013-02-02 17:32:00,7.0,-4.0,-100.00,SW,216,3.0,7.0,60,0.00,,,0.00,15.000000,,2013-02-02 23:32:00,
2013-02-02 17:42:00,7.0,-4.0,-100.00,SW,216,3.0,7.0,60,0.00,,,0.00,15.000000,,2013-02-02 23:42:00,
2013-02-02 17:52:00,7.0,-4.0,-100.00,SW,216,3.0,7.0,60,0.00,,,0.00,15.000000,,2013-02-02 23:52:00,
2013-02-02 18:02:00,7.0,-4.0,-100.00,SW,216,3.0,7.0,60,0.00,,,0.00,15.000000,,2013-02-03 00:02:00,
2013-02-02 18:32:00,5.0,-4.0,-100.00,SW,236,2.0,5.0,64,0.00,,,0.00,1.000000,,2013-02-03 00:32:00,
2013-02-02 18:42:00,5.0,-4.0,-100.00,SW,236,2.0,5.0,64,0.00,,,0.00,1.000000,,2013-02-03 00:42:00,
2013-02-02 18:52:00,5.0,-4.0,-100.00,SW,236,2.0,5.0,64,0.00,,,0.00,1.000000,,2013-02-03 00:52:00,
2013-02-02 19:02:00,5.0,-4.0,-100.00,SW,236,2.0,5.0,64,0.00,,,0.00,1.000000,,2013-02-03 01:02:00,
2013-02-02 19:32:00,4.0,-4.0,-100.00,WSW,237,1.0,4.0,69,0.00,,,0.00,0.000000,,2013-02-03 01:32:00,
2013-02-02 19:42:00,4.0,-4.0,-100.00,WSW,237,1.0,4.0,69,0.00,,,0.00,0.000000,,2013-02-03 01:42:00,
2013-02-02 19:52:00,4.0,-4.0,-100.00,WSW,237,1.0,4.0,69,0.00,,,0.00,0.000000,,2013-02-03 01:52:00,
2013-02-02 20:01:00,4.0,-4.0,-100.00,WSW,237,1.0,4.0,69,0.00,,,0.00,0.000000,,2013-02-03 02:01:00,
2013-02-02 20:32:00,5.0,-3.0,-100.00,WSW,246,3.0,5.0,69,0.00,,,0.00,0.000000,,2013-02-03 02:32:00,
2013-02-02 20:42:00,5.0,-3.0,-100.00,WSW,246,3.0,5.0,69,0.00,,,0.00,0.000000,,2013-02-03 02:42:00,
2013-02-02 20:52:00,5.0,-3.0,-100.00,WSW,246,3.0,5.0,69,0.00,,,0.00,0.000000,,2013-02-03 02:52:00,
2013-02-02 21:02:00,5.0,-3.0,-100.00,WSW,246,3.0,5.0,69,0.00,,,0.00,0.000000,,2013-02-03 03:02:00,
2013-02-02 21:32:00,5.0,-1.0,-100.00,WSW,250,4.0,7.0,75,0.00,,,0.00,0.000000,,2013-02-03 03:32:00,
2013-02-02 21:42:00,5.0,-1.0,-100.00,WSW,250,4.0,7.0,75,0.00,,,0.00,0.000000,,2013-02-03 03:42:00,
2013-02-02 21:52:00,5.0,-1.0,-100.00,WSW,250,4.0,7.0,75,0.00,,,0.00,0.000000,,2013-02-03 03:52:00,
2013-02-02 22:01:00,5.0,-1.0,-100.00,WSW,250,4.0,7.0,75,0.00,,,0.00,0.000000,,2013-02-03 04:01:00,
2013-02-02 22:32:00,5.0,-1.0,-100.00,WSW,258,4.0,7.0,75,0.00,,,0.00,0.000000,,2013-02-03 04:32:00,
2013-02-02 22:42:00,5.0,-1.0,-100.00,WSW,258,4.0,7.0,75,0.00,,,0.00,0.000000,,2013-02-03 04:42:00,
2013-02-02 22:52:00,5.0,-1.0,-100.00,WSW,258,4.0,7.0,75,0.00,,,0.00,0.000000,,2013-02-03 04:52:00,
2013-02-02 23:03:00,5.0,-1.0,-100.00,WSW,258,4.0,7.0,75,0.00,,,0.00,0.000000,,2013-02-03 05:03:00,
2013-02-02 23:32:00,6.0,0.0,-100.00,West,279,4.0,8.0,75,0.00,,,0.00,0.000000,,2013-02-03 05:32:00,
2013-02-02 23:42:00,6.0,0.0,-100.00,West,279,4.0,8.0,75,0.00,,,0.00,0.000000,,2013-02-03 05:42:00,
2013-02-02 23:52:00,6.0,0.0,-100.00,West,279,4.0,8.0,75,0.00,,,0.00,0.000000,,2013-02-03 05:52:00,